createdAt,value
2018-07-13T00:00:45.594Z,101617.27
2018-07-13T00:01:51.125Z,101615.05
2018-07-13T00:02:56.534Z,101619.67
2018-07-13T00:04:01.999Z,101616.17
2018-07-13T00:05:07.570Z,101612.97
2018-07-13T00:06:13.103Z,101615.16
2018-07-13T00:07:18.553Z,101620.37
2018-07-13T00:08:23.966Z,101616.49
2018-07-13T00:09:29.458Z,101617.33
2018-07-13T00:10:35.005Z,101616.34
2018-07-13T00:11:41.083Z,101614.83
2018-07-13T00:12:46.529Z,101616.36
2018-07-13T00:14:15.435Z,101617.70
2018-07-13T00:15:20.853Z,101613.77
2018-07-13T00:16:26.289Z,101614.18
2018-07-13T00:17:31.824Z,101618.56
2018-07-13T00:18:37.245Z,101613.95
2018-07-13T00:19:42.675Z,101612.52
2018-07-13T00:20:48.085Z,101617.18
2018-07-13T00:21:53.613Z,101617.47
2018-07-13T00:22:58.780Z,101615.09
2018-07-13T00:24:04.437Z,101617.59
2018-07-13T00:25:09.902Z,101616.25
2018-07-13T00:26:15.321Z,101619.34
2018-07-13T00:27:20.801Z,101620.54
2018-07-13T00:28:26.282Z,101620.91
2018-07-13T00:29:31.764Z,101623.00
2018-07-13T00:30:37.202Z,101617.73
2018-07-13T00:31:43.421Z,101621.13
2018-07-13T00:32:48.861Z,101626.86
2018-07-13T00:33:54.346Z,101623.11
2018-07-13T00:34:59.793Z,101624.13
2018-07-13T00:36:05.229Z,101627.20
2018-07-13T00:37:10.641Z,101625.37
2018-07-13T00:38:16.129Z,101618.57
2018-07-13T00:39:21.577Z,101622.55
2018-07-13T00:40:27.055Z,101622.64
2018-07-13T00:41:32.602Z,101618.38
2018-07-13T00:42:38.037Z,101624.14
2018-07-13T00:43:43.473Z,101617.73
2018-07-13T00:44:48.926Z,101621.89
2018-07-13T00:45:54.369Z,101621.30
2018-07-13T00:46:59.885Z,101620.79
2018-07-13T00:48:05.374Z,101619.77
2018-07-13T00:49:10.869Z,101626.53
2018-07-13T00:50:16.371Z,101622.15
2018-07-13T00:51:21.812Z,101626.53
2018-07-13T00:52:27.335Z,101624.40
2018-07-13T00:53:32.818Z,101629.56
2018-07-13T00:54:38.293Z,101625.19
2018-07-13T00:55:43.749Z,101624.19
2018-07-13T00:56:49.317Z,101614.28
2018-07-13T00:57:54.771Z,101620.86
2018-07-13T00:59:00.330Z,101618.57
2018-07-13T01:00:05.825Z,101626.73
2018-07-13T01:01:11.694Z,101626.57
2018-07-13T01:02:17.226Z,101628.45
2018-07-13T01:03:22.697Z,101634.00
2018-07-13T01:04:28.173Z,101623.98
2018-07-13T01:05:33.626Z,101630.45
2018-07-13T01:06:39.054Z,101631.62
2018-07-13T01:07:44.934Z,101632.53
2018-07-13T01:08:50.392Z,101631.62
2018-07-13T01:09:55.834Z,101630.23
2018-07-13T01:11:01.315Z,101630.66
2018-07-13T01:12:06.836Z,101626.78
2018-07-13T01:13:12.281Z,101622.87
2018-07-13T01:14:17.734Z,101625.70
2018-07-13T01:15:23.136Z,101620.91
2018-07-13T01:16:28.597Z,101620.95
2018-07-13T01:17:34.118Z,101610.81
2018-07-13T01:18:39.519Z,101618.20
2018-07-13T01:19:44.986Z,101621.33
2018-07-13T01:20:50.453Z,101615.81
2018-07-13T01:21:55.889Z,101619.82
2018-07-13T01:23:01.405Z,101617.91
2018-07-13T01:24:07.066Z,101622.61
2018-07-13T01:25:12.527Z,101623.03
2018-07-13T01:26:17.947Z,101619.65
2018-07-13T01:27:27.155Z,101620.45
2018-07-13T01:28:32.608Z,101621.20
2018-07-13T01:29:38.035Z,101620.87
2018-07-13T01:30:43.561Z,101622.23
2018-07-13T01:31:48.990Z,101619.16
2018-07-13T01:32:54.454Z,101618.78
2018-07-13T01:33:59.574Z,101626.11
2018-07-13T01:35:04.938Z,101627.41
2018-07-13T01:36:10.354Z,101625.78
2018-07-13T01:37:15.810Z,101624.15
2018-07-13T01:38:21.280Z,101625.86
2018-07-13T01:39:26.737Z,101628.61
2018-07-13T01:40:32.194Z,101626.48
2018-07-13T01:41:37.653Z,101624.69
2018-07-13T01:42:43.073Z,101632.03
2018-07-13T01:43:48.573Z,101629.10
2018-07-13T01:44:54.042Z,101628.34
2018-07-13T01:45:59.526Z,101632.98
2018-07-13T01:47:05.018Z,101635.64
2018-07-13T01:48:10.439Z,101634.05
2018-07-13T01:49:15.906Z,101631.88
2018-07-13T01:50:21.349Z,101638.38
2018-07-13T01:51:26.771Z,101631.97
2018-07-13T01:52:32.230Z,101630.67
2018-07-13T01:53:37.652Z,101642.53
2018-07-13T01:54:43.158Z,101640.03
2018-07-13T01:55:48.611Z,101641.78
2018-07-13T01:56:54.053Z,101640.52
2018-07-13T01:57:59.493Z,101640.52
2018-07-13T01:59:04.994Z,101641.78
2018-07-13T02:00:10.777Z,101642.31
2018-07-13T02:01:16.237Z,101637.30
2018-07-13T02:02:21.694Z,101639.16
2018-07-13T02:03:27.120Z,101638.75
2018-07-13T02:04:32.681Z,101637.95
2018-07-13T02:05:38.150Z,101641.90
2018-07-13T02:06:43.628Z,101635.45
2018-07-13T02:07:49.097Z,101642.73
2018-07-13T02:09:02.826Z,101640.56
2018-07-13T02:10:08.545Z,101644.44
2018-07-13T02:11:13.998Z,101641.41
2018-07-13T02:12:19.426Z,101637.88
2018-07-13T02:13:24.854Z,101643.11
2018-07-13T02:14:30.306Z,101637.98
2018-07-13T02:15:35.777Z,101639.81
2018-07-13T02:16:41.255Z,101639.31
2018-07-13T02:17:46.673Z,101641.98
2018-07-13T02:18:52.209Z,101636.43
2018-07-13T02:19:57.660Z,101636.36
2018-07-13T02:21:03.120Z,101637.72
2018-07-13T02:22:08.807Z,101634.64
2018-07-13T02:23:14.287Z,101636.73
2018-07-13T02:24:19.717Z,101640.45
2018-07-13T02:25:25.220Z,101643.19
2018-07-13T02:26:30.940Z,101642.73
2018-07-13T02:27:36.398Z,101639.89
2018-07-13T02:28:41.849Z,101642.77
2018-07-13T02:29:47.300Z,101638.90
2018-07-13T02:30:52.732Z,101644.55
2018-07-13T02:31:58.173Z,101644.70
2018-07-13T02:33:03.609Z,101643.04
2018-07-13T02:34:09.087Z,101640.95
2018-07-13T02:35:14.501Z,101641.75
2018-07-13T02:36:19.935Z,101641.33
2018-07-13T02:37:25.403Z,101639.09
2018-07-13T02:38:30.906Z,101645.12
2018-07-13T02:39:36.717Z,101644.33
2018-07-13T02:40:42.239Z,101644.02
2018-07-13T02:41:47.681Z,101648.20
2018-07-13T02:42:53.110Z,101649.95
2018-07-13T02:43:58.677Z,101648.27
2018-07-13T02:45:04.145Z,101646.87
2018-07-13T02:46:09.651Z,101643.30
2018-07-13T02:47:15.115Z,101647.55
2018-07-13T02:48:20.575Z,101643.79
2018-07-13T02:49:26.061Z,101644.73
2018-07-13T02:50:31.478Z,101644.50
2018-07-13T02:51:36.920Z,101644.01
2018-07-13T02:52:42.377Z,101648.33
2018-07-13T02:53:47.845Z,101646.09
2018-07-13T02:54:53.306Z,101645.61
2018-07-13T02:55:58.758Z,101646.45
2018-07-13T02:57:04.253Z,101649.44
2018-07-13T02:58:09.688Z,101648.16
2018-07-13T02:59:15.486Z,101647.39
2018-07-13T03:00:21.005Z,101646.55
2018-07-13T03:01:26.441Z,101653.00
2018-07-13T03:02:31.939Z,101652.97
2018-07-13T03:03:37.439Z,101656.77
2018-07-13T03:04:42.919Z,101661.41
2018-07-13T03:05:48.469Z,101660.11
2018-07-13T03:06:53.917Z,101658.36
2018-07-13T03:07:59.482Z,101662.66
2018-07-13T03:09:07.593Z,101655.82
2018-07-13T03:10:13.054Z,101668.27
2018-07-13T03:11:18.563Z,101661.13
2018-07-13T03:12:23.994Z,101658.92
2018-07-13T03:13:29.440Z,101662.53
2018-07-13T03:14:35.053Z,101660.18
2018-07-13T03:15:40.449Z,101666.11
2018-07-13T03:16:45.902Z,101670.22
2018-07-13T03:17:51.343Z,101668.44
2018-07-13T03:18:56.770Z,101674.70
2018-07-13T03:20:02.198Z,101672.47
2018-07-13T03:21:07.725Z,101669.20
2018-07-13T03:22:13.499Z,101673.45
2018-07-13T03:23:18.889Z,101677.66
2018-07-13T03:24:24.320Z,101672.43
2018-07-13T03:25:29.785Z,101671.36
2018-07-13T03:26:35.242Z,101670.03
2018-07-13T03:27:40.689Z,101670.83
2018-07-13T03:28:46.526Z,101669.95
2018-07-13T03:29:51.986Z,101670.25
2018-07-13T03:30:57.557Z,101671.84
2018-07-13T03:32:03.323Z,101673.14
2018-07-13T03:33:08.824Z,101673.34
2018-07-13T03:34:14.339Z,101676.33
2018-07-13T03:35:20.051Z,101673.87
2018-07-13T03:36:25.260Z,101671.73
2018-07-13T03:37:30.705Z,101680.25
2018-07-13T03:38:36.178Z,101681.00
2018-07-13T03:39:41.653Z,101682.67
2018-07-13T03:40:47.125Z,101686.97
2018-07-13T03:41:52.962Z,101681.13
2018-07-13T03:42:58.373Z,101682.79
2018-07-13T03:44:03.907Z,101681.77
2018-07-13T03:45:09.746Z,101680.47
2018-07-13T03:46:15.189Z,101682.06
2018-07-13T03:47:20.641Z,101674.50
2018-07-13T03:48:26.188Z,101675.20
2018-07-13T03:49:31.571Z,101672.92
2018-07-13T03:50:37.028Z,101677.13
2018-07-13T03:51:42.532Z,101676.38
2018-07-13T03:52:47.989Z,101672.66
2018-07-13T03:53:53.449Z,101675.73
2018-07-13T03:54:58.894Z,101671.33
2018-07-13T03:56:04.865Z,101676.38
2018-07-13T03:57:10.749Z,101672.72
2018-07-13T03:58:16.186Z,101673.97
2018-07-13T03:59:21.766Z,101676.48
2018-07-13T04:00:28.199Z,101679.52
2018-07-13T04:01:33.626Z,101678.19
2018-07-13T04:02:39.481Z,101684.19
2018-07-13T04:03:45.982Z,101677.70
2018-07-13T04:04:51.490Z,101682.78
2018-07-13T04:05:57.073Z,101684.07
2018-07-13T04:07:02.574Z,101685.66
2018-07-13T04:08:08.165Z,101688.70
2018-07-13T04:09:13.622Z,101688.25
2018-07-13T04:10:19.227Z,101683.16
2018-07-13T04:11:24.805Z,101687.37
2018-07-13T04:12:30.309Z,101686.28
2018-07-13T04:13:35.482Z,101685.06
2018-07-13T04:14:41.000Z,101688.83
2018-07-13T04:15:46.606Z,101687.11
2018-07-13T04:16:52.085Z,101682.52
2018-07-13T04:17:57.622Z,101686.35
2018-07-13T04:19:03.080Z,101686.70
2018-07-13T04:20:08.638Z,101690.27
2018-07-13T04:21:14.997Z,101686.47
2018-07-13T04:22:20.531Z,101684.87
2018-07-13T04:23:26.216Z,101686.97
2018-07-13T04:24:31.773Z,101684.30
2018-07-13T04:25:37.389Z,101687.77
2018-07-13T04:26:46.820Z,101686.17
2018-07-13T04:27:52.457Z,101688.75
2018-07-13T04:28:58.059Z,101688.22
2018-07-13T04:30:03.620Z,101691.14
2018-07-13T04:31:09.158Z,101689.81
2018-07-13T04:32:14.708Z,101687.16
2018-07-13T04:33:20.221Z,101690.91
2018-07-13T04:34:25.674Z,101692.16
2018-07-13T04:35:31.678Z,101694.14
2018-07-13T04:36:37.146Z,101688.30
2018-07-13T04:37:42.597Z,101692.36
2018-07-13T04:38:48.121Z,101688.98
2018-07-13T04:39:53.618Z,101689.85
2018-07-13T04:40:59.224Z,101692.89
2018-07-13T04:42:04.481Z,101688.06
2018-07-13T04:43:10.261Z,101686.66
2018-07-13T04:44:15.758Z,101691.55
2018-07-13T04:45:21.388Z,101693.52
2018-07-13T04:46:26.954Z,101692.14
2018-07-13T04:47:32.514Z,101688.06
2018-07-13T04:48:38.156Z,101688.31
2018-07-13T04:49:43.803Z,101691.11
2018-07-13T04:50:49.418Z,101694.45
2018-07-13T04:51:55.037Z,101689.91
2018-07-13T04:53:01.166Z,101693.75
2018-07-13T04:54:07.014Z,101696.08
2018-07-13T04:55:12.621Z,101696.88
2018-07-13T04:56:18.108Z,101696.66
2018-07-13T04:57:23.674Z,101693.89
2018-07-13T04:58:29.278Z,101694.06
2018-07-13T04:59:34.884Z,101702.31
2018-07-13T05:00:40.816Z,101695.98
2018-07-13T05:01:46.553Z,101699.72
2018-07-13T05:02:52.786Z,101693.66
2018-07-13T05:03:58.429Z,101693.41
2018-07-13T05:05:04.067Z,101691.61
2018-07-13T05:06:09.941Z,101688.61
2018-07-13T05:07:15.613Z,101689.48
2018-07-13T05:08:21.169Z,101686.77
2018-07-13T05:09:26.737Z,101693.89
2018-07-13T05:10:32.337Z,101691.72
2018-07-13T05:11:37.913Z,101697.08
2018-07-13T05:12:43.425Z,101695.11
2018-07-13T05:13:48.933Z,101693.63
2018-07-13T05:14:54.373Z,101684.33
2018-07-13T05:15:59.930Z,101690.66
2018-07-13T05:17:05.493Z,101690.48
2018-07-13T05:18:10.825Z,101693.27
2018-07-13T05:19:16.229Z,101694.75
2018-07-13T05:20:21.766Z,101693.26
2018-07-13T05:21:27.363Z,101692.34
2018-07-13T05:22:32.967Z,101687.75
2018-07-13T05:23:38.550Z,101692.15
2018-07-13T05:24:44.132Z,101692.20
2018-07-13T05:25:50.198Z,101693.31
2018-07-13T05:26:55.849Z,101690.91
2018-07-13T05:28:01.408Z,101695.48
2018-07-13T05:29:07.013Z,101697.20
2018-07-13T05:30:12.709Z,101705.33
2018-07-13T05:31:18.318Z,101696.69
2018-07-13T05:32:23.905Z,101700.16
2018-07-13T05:33:29.849Z,101705.38
2018-07-13T05:34:35.448Z,101706.31
2018-07-13T05:35:41.000Z,101697.84
2018-07-13T05:36:46.673Z,101710.19
2018-07-13T05:37:52.162Z,101711.63
2018-07-13T05:38:57.726Z,101707.06
2018-07-13T05:40:05.040Z,101715.34
2018-07-13T05:41:10.658Z,101712.42
2018-07-13T05:42:16.437Z,101713.11
2018-07-13T05:43:22.485Z,101716.53
2018-07-13T05:44:28.234Z,101717.11
2018-07-13T05:45:33.844Z,101717.39
2018-07-13T05:46:39.584Z,101712.56
2018-07-13T05:47:45.177Z,101719.64
2018-07-13T05:48:50.819Z,101723.27
2018-07-13T05:49:56.005Z,101718.08
2018-07-13T05:51:01.497Z,101725.04
2018-07-13T05:52:07.165Z,101723.40
2018-07-13T05:53:12.697Z,101728.83
2018-07-13T05:54:18.279Z,101733.50
2018-07-13T05:55:23.861Z,101726.30
2018-07-13T05:56:29.405Z,101731.07
2018-07-13T05:57:34.993Z,101728.88
2018-07-13T05:58:40.576Z,101728.02
2018-07-13T05:59:46.367Z,101729.83
2018-07-13T06:00:52.358Z,101730.69
2018-07-13T06:01:58.049Z,101729.88
2018-07-13T06:03:03.730Z,101729.10
2018-07-13T06:04:10.155Z,101731.66
2018-07-13T06:05:15.718Z,101730.72
2018-07-13T06:06:21.299Z,101738.20
2018-07-13T06:07:27.238Z,101733.72
2018-07-13T06:08:33.297Z,101733.66
2018-07-13T06:09:38.936Z,101730.31
2018-07-13T06:10:44.771Z,101735.77
2018-07-13T06:11:50.353Z,101738.55
2018-07-13T06:12:55.921Z,101732.89
2018-07-13T06:14:01.834Z,101736.56
2018-07-13T06:15:07.611Z,101733.97
2018-07-13T06:16:12.944Z,101742.69
2018-07-13T06:17:18.426Z,101745.05
2018-07-13T06:18:23.939Z,101746.67
2018-07-13T06:19:29.481Z,101749.92
2018-07-13T06:20:34.949Z,101747.94
2018-07-13T06:21:40.869Z,101748.91
2018-07-13T06:22:46.169Z,101747.03
2018-07-13T06:23:51.553Z,101748.27
2018-07-13T06:24:57.025Z,101755.28
2018-07-13T06:26:02.488Z,101748.74
2018-07-13T06:27:08.026Z,101751.74
2018-07-13T06:28:13.506Z,101752.66
2018-07-13T06:29:18.644Z,101751.97
2018-07-13T06:30:24.222Z,101751.31
2018-07-13T06:31:29.752Z,101753.24
2018-07-13T06:32:35.154Z,101755.66
2018-07-13T06:33:40.665Z,101757.71
2018-07-13T06:34:46.201Z,101757.91
2018-07-13T06:35:51.682Z,101758.09
2018-07-13T06:36:57.203Z,101755.52
2018-07-13T06:38:02.793Z,101752.32
2018-07-13T06:39:11.131Z,101751.22
2018-07-13T06:40:16.689Z,101752.98
2018-07-13T06:41:22.420Z,101754.51
2018-07-13T06:42:27.896Z,101754.94
2018-07-13T06:43:33.557Z,101751.05
2018-07-13T06:44:39.392Z,101747.84
2018-07-13T06:45:45.241Z,101749.69
2018-07-13T06:46:50.804Z,101742.47
2018-07-13T06:47:56.574Z,101749.81
2018-07-13T06:49:02.067Z,101747.87
2018-07-13T06:50:08.230Z,101753.68
2018-07-13T06:51:14.018Z,101750.89
2018-07-13T06:52:19.674Z,101752.36
2018-07-13T06:53:25.155Z,101755.05
2018-07-13T06:54:30.590Z,101756.08
2018-07-13T06:55:36.129Z,101743.84
2018-07-13T06:56:41.874Z,101747.77
2018-07-13T06:58:04.201Z,101753.21
2018-07-13T06:59:15.930Z,101748.05
2018-07-13T07:00:57.928Z,101744.55
2018-07-13T07:02:03.478Z,101751.78
2018-07-13T07:03:09.125Z,101749.38
2018-07-13T07:04:30.582Z,101754.98
2018-07-13T07:06:00.449Z,101751.52
2018-07-13T07:07:14.057Z,101753.98
2018-07-13T07:08:19.585Z,101750.02
2018-07-13T07:09:26.877Z,101756.70
2018-07-13T07:10:32.445Z,101758.77
2018-07-13T07:11:38.057Z,101760.27
2018-07-13T07:13:01.853Z,101759.93
2018-07-13T07:14:07.317Z,101761.53
2018-07-13T07:15:13.101Z,101763.19
2018-07-13T07:16:18.584Z,101769.68
2018-07-13T07:17:24.002Z,101771.16
2018-07-13T07:18:30.172Z,101767.08
2018-07-13T07:19:35.712Z,101766.91
2018-07-13T07:20:41.212Z,101761.31
2018-07-13T07:21:46.914Z,101765.09
2018-07-13T07:22:52.493Z,101764.20
2018-07-13T07:23:58.074Z,101760.66
2018-07-13T07:25:03.555Z,101762.00
2018-07-13T07:26:09.145Z,101759.77
2018-07-13T07:27:14.714Z,101760.89
2018-07-13T07:28:20.207Z,101762.42
2018-07-13T07:29:25.758Z,101768.77
2018-07-13T07:30:31.361Z,101768.11
2018-07-13T07:31:36.837Z,101763.84
2018-07-13T07:32:42.378Z,101766.11
2018-07-13T07:33:47.606Z,101765.77
2018-07-13T07:34:53.021Z,101766.24
2018-07-13T07:35:58.490Z,101762.06
2018-07-13T07:37:03.933Z,101768.99
2018-07-13T07:38:09.896Z,101765.49
2018-07-13T07:39:15.345Z,101766.67
2018-07-13T07:40:20.925Z,101758.59
2018-07-13T07:41:26.435Z,101770.88
2018-07-13T07:42:32.359Z,101771.83
2018-07-13T07:43:38.008Z,101774.78
2018-07-13T07:44:43.513Z,101765.31
2018-07-13T07:45:49.365Z,101773.41
2018-07-13T07:46:54.834Z,101777.62
2018-07-13T07:48:00.389Z,101778.69
2018-07-13T07:49:05.872Z,101775.59
2018-07-13T07:50:10.991Z,101782.02
2018-07-13T07:51:16.333Z,101784.25
2018-07-13T07:52:22.117Z,101783.63
2018-07-13T07:53:27.596Z,101778.58
2018-07-13T07:54:33.034Z,101780.45
2018-07-13T07:55:38.516Z,101780.22
2018-07-13T07:56:43.672Z,101780.86
2018-07-13T07:57:49.254Z,101780.09
2018-07-13T07:58:54.994Z,101779.39
2018-07-13T08:00:00.518Z,101780.01
2018-07-13T08:01:05.988Z,101783.65
2018-07-13T08:02:11.743Z,101783.95
2018-07-13T08:03:17.657Z,101784.72
2018-07-13T08:04:23.139Z,101784.26
2018-07-13T08:05:28.781Z,101786.60
2018-07-13T08:06:34.558Z,101777.50
2018-07-13T08:07:40.325Z,101783.23
2018-07-13T08:08:45.778Z,101786.81
2018-07-13T08:09:51.210Z,101787.22
2018-07-13T08:10:56.670Z,101783.48
2018-07-13T08:12:02.080Z,101784.95
2018-07-13T08:13:07.862Z,101786.64
2018-07-13T08:14:13.645Z,101779.91
2018-07-13T08:15:18.709Z,101781.34
2018-07-13T08:16:24.306Z,101786.71
2018-07-13T08:17:29.743Z,101780.07
2018-07-13T08:18:35.289Z,101781.44
2018-07-13T08:19:40.741Z,101780.54
2018-07-13T08:20:48.993Z,101785.18
2018-07-13T08:21:54.649Z,101772.30
2018-07-13T08:23:03.579Z,101773.59
2018-07-13T08:24:10.080Z,101776.23
2018-07-13T08:25:15.426Z,101772.35
2018-07-13T08:26:20.890Z,101770.58
2018-07-13T08:28:02.065Z,101776.00
2018-07-13T08:29:08.370Z,101773.00
2018-07-13T08:30:38.331Z,101766.48
2018-07-13T08:31:44.773Z,101766.19
2018-07-13T08:32:50.402Z,101773.30
2018-07-13T08:33:56.116Z,101770.53
2018-07-13T08:35:01.592Z,101765.42
2018-07-13T08:36:07.377Z,101769.34
2018-07-13T08:37:12.947Z,101773.86
2018-07-13T08:38:18.402Z,101770.89
2018-07-13T08:39:23.983Z,101772.26
2018-07-13T08:40:29.519Z,101769.12
2018-07-13T08:41:35.203Z,101773.59
2018-07-13T08:42:41.317Z,101771.38
2018-07-13T08:43:46.837Z,101769.73
2018-07-13T08:44:52.504Z,101763.17
2018-07-13T08:45:58.114Z,101768.98
2018-07-13T08:47:03.632Z,101775.86
2018-07-13T08:48:09.218Z,101774.06
2018-07-13T08:49:14.769Z,101775.34
2018-07-13T08:50:20.378Z,101769.73
2018-07-13T08:51:26.037Z,101766.37
2018-07-13T08:52:31.817Z,101769.73
2018-07-13T08:53:37.450Z,101769.84
2018-07-13T08:54:43.123Z,101771.67
2018-07-13T08:55:48.661Z,101773.56
2018-07-13T08:56:55.181Z,101768.84
2018-07-13T08:58:00.793Z,101767.91
2018-07-13T08:59:06.622Z,101767.16
2018-07-13T09:00:12.640Z,101773.04
2018-07-13T09:01:18.106Z,101771.58
2018-07-13T09:02:23.684Z,101766.39
2018-07-13T09:03:29.181Z,101769.53
2018-07-13T09:04:34.861Z,101769.11
2018-07-13T09:05:40.545Z,101767.60
2018-07-13T09:06:49.319Z,101767.44
2018-07-13T09:07:54.898Z,101768.14
2018-07-13T09:09:00.525Z,101763.37
2018-07-13T09:10:10.464Z,101763.31
2018-07-13T09:11:15.978Z,101764.77
2018-07-13T09:12:21.544Z,101765.59
2018-07-13T09:13:27.018Z,101764.77
2018-07-13T09:14:32.597Z,101772.52
2018-07-13T09:15:38.104Z,101768.61
2018-07-13T09:16:43.788Z,101765.08
2018-07-13T09:17:49.309Z,101765.54
2018-07-13T09:18:54.878Z,101766.30
2018-07-13T09:20:00.366Z,101763.70
2018-07-13T09:21:06.189Z,101762.39
2018-07-13T09:22:11.701Z,101767.43
2018-07-13T09:23:17.227Z,101765.79
2018-07-13T09:24:22.808Z,101768.60
2018-07-13T09:25:28.313Z,101767.51
2018-07-13T09:26:34.245Z,101768.12
2018-07-13T09:27:40.238Z,101770.24
2018-07-13T09:28:45.743Z,101768.81
2018-07-13T09:29:51.197Z,101762.13
2018-07-13T09:30:56.801Z,101763.65
2018-07-13T09:32:02.305Z,101766.42
2018-07-13T09:33:08.086Z,101767.51
2018-07-13T09:34:13.661Z,101763.59
2018-07-13T09:35:18.860Z,101767.63
2018-07-13T09:36:24.684Z,101762.68
2018-07-13T09:37:30.351Z,101763.20
2018-07-13T09:38:35.888Z,101765.63
2018-07-13T09:39:41.337Z,101766.88
2018-07-13T09:40:47.223Z,101760.09
2018-07-13T09:41:53.043Z,101761.87
2018-07-13T09:43:00.602Z,101764.82
2018-07-13T09:44:06.230Z,101764.06
2018-07-13T09:45:11.863Z,101765.73
2018-07-13T09:46:17.471Z,101769.66
2018-07-13T09:47:23.249Z,101773.72
2018-07-13T09:48:28.749Z,101769.34
2018-07-13T09:49:34.237Z,101768.40
2018-07-13T09:50:39.722Z,101769.70
2018-07-13T09:51:45.247Z,101770.49
2018-07-13T09:52:50.774Z,101774.09
2018-07-13T09:53:56.585Z,101767.80
2018-07-13T09:55:02.176Z,101772.86
2018-07-13T09:56:08.427Z,101777.26
2018-07-13T09:57:13.957Z,101782.80
2018-07-13T09:58:29.962Z,101779.63
2018-07-13T09:59:35.473Z,101777.97
2018-07-13T10:00:46.365Z,101780.42
2018-07-13T10:01:51.763Z,101779.87
2018-07-13T10:02:57.140Z,101775.63
2018-07-13T10:04:02.526Z,101779.85
2018-07-13T10:05:08.361Z,101779.33
2018-07-13T10:06:13.933Z,101781.88
2018-07-13T10:07:19.735Z,101778.73
2018-07-13T10:08:25.426Z,101776.67
2018-07-13T10:09:31.014Z,101785.89
2018-07-13T10:10:36.546Z,101779.63
2018-07-13T10:11:42.182Z,101776.47
2018-07-13T10:12:48.244Z,101775.41
2018-07-13T10:13:53.763Z,101774.47
2018-07-13T10:14:59.346Z,101782.06
2018-07-13T10:16:04.911Z,101769.74
2018-07-13T10:17:10.449Z,101783.09
2018-07-13T10:18:16.230Z,101775.91
2018-07-13T10:19:21.787Z,101775.45
2018-07-13T10:20:28.131Z,101776.11
2018-07-13T10:21:34.910Z,101774.89
2018-07-13T10:22:40.093Z,101773.23
2018-07-13T10:23:46.666Z,101776.11
2018-07-13T10:24:53.219Z,101776.41
2018-07-13T10:26:04.474Z,101771.41
2018-07-13T10:27:10.042Z,101770.20
2018-07-13T10:28:15.585Z,101770.45
2018-07-13T10:29:31.611Z,101772.16
2018-07-13T10:30:39.073Z,101765.88
2018-07-13T10:31:44.641Z,101770.00
2018-07-13T10:32:50.314Z,101767.39
2018-07-13T10:33:55.899Z,101765.83
2018-07-13T10:35:03.484Z,101765.95
2018-07-13T10:36:11.931Z,101770.23
2018-07-13T10:37:17.541Z,101769.00
2018-07-13T10:38:23.606Z,101765.31
2018-07-13T10:39:29.192Z,101763.96
2018-07-13T10:40:34.765Z,101771.34
2018-07-13T10:41:40.269Z,101766.00
2018-07-13T10:42:45.998Z,101764.15
2018-07-13T10:43:54.449Z,101765.60
2018-07-13T10:45:03.173Z,101761.48
2018-07-13T10:46:08.721Z,101765.07
2018-07-13T10:47:14.246Z,101770.19
2018-07-13T10:48:19.511Z,101768.47
2018-07-13T10:49:24.926Z,101767.70
2018-07-13T10:50:30.355Z,101770.97
2018-07-13T10:51:35.888Z,101771.09
2018-07-13T10:52:41.386Z,101769.48
2018-07-13T10:53:46.827Z,101774.45
2018-07-13T10:54:52.256Z,101770.14
2018-07-13T10:55:57.788Z,101767.88
2018-07-13T10:57:03.284Z,101766.47
2018-07-13T10:58:09.170Z,101765.20
2018-07-13T10:59:14.622Z,101766.30
2018-07-13T11:00:20.137Z,101768.34
2018-07-13T11:01:25.718Z,101768.16
2018-07-13T11:02:31.570Z,101767.31
2018-07-13T11:03:37.058Z,101766.57
2018-07-13T11:04:42.565Z,101762.83
2018-07-13T11:05:47.979Z,101765.06
2018-07-13T11:06:53.839Z,101760.69
2018-07-13T11:07:59.431Z,101760.05
2018-07-13T11:09:06.249Z,101754.73
2018-07-13T11:10:11.777Z,101749.11
2018-07-13T11:11:17.257Z,101756.39
2018-07-13T11:12:22.854Z,101754.30
2018-07-13T11:13:28.460Z,101750.26
2018-07-13T11:14:33.902Z,101747.99
2018-07-13T11:15:39.402Z,101750.61
2018-07-13T11:16:45.218Z,101753.27
2018-07-13T11:17:50.707Z,101750.62
2018-07-13T11:18:56.855Z,101750.30
2018-07-13T11:20:02.349Z,101753.50
2018-07-13T11:21:08.209Z,101746.95
2018-07-13T11:22:13.704Z,101748.42
2018-07-13T11:23:19.377Z,101750.59
2018-07-13T11:24:24.833Z,101750.22
2018-07-13T11:25:30.422Z,101747.24
2018-07-13T11:26:35.849Z,101749.80
2018-07-13T11:27:41.316Z,101746.60
2018-07-13T11:28:46.727Z,101751.69
2018-07-13T11:29:52.231Z,101749.48
2018-07-13T11:30:57.393Z,101743.37
2018-07-13T11:32:02.982Z,101754.20
2018-07-13T11:33:08.549Z,101751.21
2018-07-13T11:34:13.964Z,101748.73
2018-07-13T11:35:19.408Z,101743.62
2018-07-13T11:36:24.877Z,101746.59
2018-07-13T11:37:30.487Z,101741.00
2018-07-13T11:38:36.409Z,101742.41
2018-07-13T11:39:41.966Z,101740.52
2018-07-13T11:40:47.501Z,101740.42
2018-07-13T11:41:52.953Z,101736.78
2018-07-13T11:42:58.477Z,101740.13
2018-07-13T11:44:03.983Z,101734.83
2018-07-13T11:45:09.493Z,101735.66
2018-07-13T11:46:15.379Z,101730.58
2018-07-13T11:47:20.922Z,101731.57
2018-07-13T11:48:26.432Z,101734.69
2018-07-13T11:49:32.034Z,101733.05
2018-07-13T11:50:37.481Z,101729.64
2018-07-13T11:51:42.884Z,101737.06
2018-07-13T11:52:48.602Z,101731.23
2018-07-13T11:53:54.061Z,101733.42
2018-07-13T11:54:59.913Z,101732.78
2018-07-13T11:56:05.449Z,101728.78
2018-07-13T11:57:10.908Z,101734.67
2018-07-13T11:58:16.331Z,101730.07
2018-07-13T11:59:21.773Z,101730.48
2018-07-13T12:00:27.349Z,101729.14
2018-07-13T12:01:32.877Z,101731.28
2018-07-13T12:02:38.405Z,101734.90
2018-07-13T12:03:43.965Z,101734.03
2018-07-13T12:04:49.470Z,101735.08
2018-07-13T12:05:55.060Z,101729.93
2018-07-13T12:07:00.625Z,101730.31
2018-07-13T12:08:06.186Z,101728.20
2018-07-13T12:09:11.649Z,101734.11
2018-07-13T12:10:17.138Z,101723.81
2018-07-13T12:11:22.623Z,101726.51
2018-07-13T12:12:28.277Z,101723.30
2018-07-13T12:13:33.715Z,101720.50
2018-07-13T12:14:39.357Z,101718.78
2018-07-13T12:15:44.838Z,101719.63
2018-07-13T12:16:50.331Z,101725.56
2018-07-13T12:17:55.904Z,101730.09
2018-07-13T12:19:01.349Z,101721.93
2018-07-13T12:20:06.784Z,101727.23
2018-07-13T12:21:12.251Z,101725.39
2018-07-13T12:22:17.950Z,101728.25
2018-07-13T12:23:23.409Z,101727.97
2018-07-13T12:24:29.031Z,101723.10
2018-07-13T12:25:34.526Z,101720.05
2018-07-13T12:26:39.975Z,101718.03
2018-07-13T12:27:45.425Z,101718.55
2018-07-13T12:28:51.121Z,101724.24
2018-07-13T12:29:56.664Z,101727.97
2018-07-13T12:31:02.126Z,101724.53
2018-07-13T12:32:07.605Z,101717.47
2018-07-13T12:33:13.023Z,101720.82